Time;durP1;ratioP1;P1;durP2;ratioP2;P2;SDS_P1;SDS_P2;PMS_P1;PMS_P2;Temp;Humidity;BMP_temperature;BMP_pressure;BME280_temperature;BME280_humidity;BME280_pressure;Samples;Min_cycle;Max_cycle;Signal;HPM_P1;HPM_P2
2023/12/26 00:04:45;;;;;;;5.20;1.70;;;;;10.30;100281.00;;;;10331342;28;20219;-84
2023/12/26 00:09:46;;;;;;;2.77;1.83;;;;;10.20;100286.00;;;;10392031;28;20214;-84
2023/12/26 00:14:47;;;;;;;3.60;1.37;;;;;10.20;100280.00;;;;10413301;28;20230;-83
2023/12/26 00:19:49;;;;;;;2.83;1.30;;;;;10.10;100279.00;;;;10403895;28;20230;-87
2023/12/26 00:24:52;;;;;;;5.23;1.90;;;;;10.10;100266.00;;;;10407532;28;20236;-85
2023/12/26 00:29:53;;;;;;;3.67;1.70;;;;;10.00;100269.00;;;;10404095;28;20361;-87
2023/12/26 00:34:55;;;;;;;5.87;1.97;;;;;10.00;100267.00;;;;10400703;28;20222;-86
2023/12/26 00:39:56;;;;;;;5.03;1.90;;;;;10.00;100272.00;;;;10397882;28;20229;-79
2023/12/26 00:44:58;;;;;;;4.67;1.93;;;;;10.00;100274.00;;;;10392704;28;20239;-79
2023/12/26 00:49:59;;;;;;;6.23;1.70;;;;;10.00;100266.00;;;;10402313;28;20356;-80
2023/12/26 00:55:02;;;;;;;6.03;1.97;;;;;10.00;100272.00;;;;10424023;28;20245;-78
2023/12/26 01:00:05;;;;;;;5.90;2.40;;;;;10.00;100273.00;;;;10421855;28;20249;-79
2023/12/26 01:05:07;;;;;;;5.97;1.77;;;;;10.00;100286.00;;;;10407447;28;20280;-79
2023/12/26 01:10:08;;;;;;;5.33;2.20;;;;;10.00;100285.00;;;;10415743;28;20230;-79
2023/12/26 01:15:10;;;;;;;6.53;2.27;;;;;10.00;100293.00;;;;10387838;28;20234;-78
2023/12/26 01:20:12;;;;;;;11.60;2.53;;;;;10.00;100286.00;;;;10408272;28;20226;-78
2023/12/26 01:25:14;;;;;;;7.27;2.60;;;;;9.90;100298.00;;;;10390751;28;21023;-80
2023/12/26 01:30:15;;;;;;;4.13;2.50;;;;;9.90;100301.00;;;;10398774;28;20214;-80
2023/12/26 01:35:16;;;;;;;5.30;2.47;;;;;9.80;100302.00;;;;10392248;28;20217;-80
2023/12/26 01:40:17;;;;;;;6.27;2.30;;;;;9.80;100303.00;;;;10382776;28;20226;-80
2023/12/26 01:45:19;;;;;;;7.60;2.33;;;;;9.80;100306.00;;;;10366490;28;20249;-80
2023/12/26 01:50:22;;;;;;;4.23;2.47;;;;;9.80;100314.00;;;;10376453;28;20225;-84
2023/12/26 01:55:23;;;;;;;5.63;3.00;;;;;9.80;100323.00;;;;10358925;28;20215;-84
2023/12/26 02:00:25;;;;;;;5.87;2.40;;;;;9.80;100334.00;;;;10382847;28;20253;-83
2023/12/26 02:05:27;;;;;;;4.17;2.50;;;;;9.80;100348.00;;;;10381149;28;20245;-87
2023/12/26 02:10:28;;;;;;;7.50;2.43;;;;;9.70;100351.00;;;;10391405;28;20644;-85
2023/12/26 02:15:30;;;;;;;6.00;2.43;;;;;9.70;100355.00;;;;10404069;28;20210;-84
2023/12/26 02:20:33;;;;;;;10.00;2.87;;;;;9.70;100359.00;;;;10421412;28;20864;-82
2023/12/26 02:25:36;;;;;;;4.67;2.17;;;;;9.70;100362.00;;;;10396516;28;20651;-84
2023/12/26 02:30:38;;;;;;;7.00;3.80;;;;;9.70;100361.00;;;;10440042;28;20223;-85
2023/12/26 02:35:39;;;;;;;5.27;2.50;;;;;9.60;100357.00;;;;10426195;28;20299;-84
2023/12/26 02:40:41;;;;;;;6.63;2.30;;;;;9.60;100368.00;;;;10387663;28;20229;-84
2023/12/26 02:45:42;;;;;;;7.03;3.07;;;;;9.60;100384.00;;;;10380830;28;20231;-84
2023/12/26 02:50:47;;;;;;;8.37;2.80;;;;;9.60;100381.00;;;;10419860;28;20684;-83
2023/12/26 02:55:54;;;;;;;8.97;2.30;;;;;9.60;100387.00;;;;10395208;28;20237;-84
2023/12/26 03:00:56;;;;;;;4.67;2.50;;;;;9.60;100383.00;;;;10419684;28;20221;-83
2023/12/26 03:05:57;;;;;;;9.07;2.87;;;;;9.60;100390.00;;;;10409386;28;20218;-83
2023/12/26 03:10:58;;;;;;;6.43;2.60;;;;;9.60;100398.00;;;;10415631;28;20884;-83
2023/12/26 03:16:00;;;;;;;5.30;2.70;;;;;9.60;100404.00;;;;10407705;28;20230;-83
2023/12/26 03:21:02;;;;;;;8.37;3.60;;;;;9.60;100419.00;;;;10393181;28;20631;-82
2023/12/26 03:26:03;;;;;;;8.63;3.30;;;;;9.70;100417.00;;;;10407450;28;20218;-82
2023/12/26 03:31:05;;;;;;;12.33;3.73;;;;;9.70;100419.00;;;;10394448;28;20280;-81
2023/12/26 03:36:09;;;;;;;9.03;3.37;;;;;9.70;100421.00;;;;10409809;28;20230;-82
2023/12/26 03:41:11;;;;;;;12.17;3.70;;;;;9.70;100425.00;;;;10413337;28;20227;-82
2023/12/26 03:46:13;;;;;;;8.63;2.97;;;;;9.70;100434.00;;;;10402103;28;20219;-82
2023/12/26 03:51:14;;;;;;;4.30;3.03;;;;;9.80;100441.00;;;;10395127;28;20226;-81
2023/12/26 03:56:15;;;;;;;7.83;2.80;;;;;9.80;100433.00;;;;10411979;28;20245;-82
2023/12/26 04:01:16;;;;;;;7.13;3.00;;;;;9.80;100444.00;;;;10389545;28;20230;-82
2023/12/26 04:06:18;;;;;;;7.50;2.63;;;;;9.70;100447.00;;;;10394951;28;20223;-81
2023/12/26 04:11:19;;;;;;;8.57;3.07;;;;;9.70;100445.00;;;;10424933;28;20218;-81
2023/12/26 04:16:21;;;;;;;6.10;2.63;;;;;9.70;100448.00;;;;10402065;28;20224;-81
2023/12/26 04:21:23;;;;;;;10.13;3.20;;;;;9.70;100464.00;;;;10400533;28;20987;-82
2023/12/26 04:26:24;;;;;;;7.70;3.50;;;;;9.60;100473.00;;;;10398333;28;20714;-81
2023/12/26 04:31:26;;;;;;;8.20;2.70;;;;;9.60;100481.00;;;;10426191;28;20242;-81
2023/12/26 04:36:27;;;;;;;7.60;2.90;;;;;9.60;100495.00;;;;10387589;28;20638;-82
2023/12/26 04:41:28;;;;;;;5.07;2.20;;;;;9.60;100502.00;;;;10396618;28;21313;-82
2023/12/26 04:46:29;;;;;;;3.37;2.40;;;;;9.60;100510.00;;;;10405951;28;20228;-80
2023/12/26 04:51:31;;;;;;;4.70;2.83;;;;;9.60;100497.00;;;;10401040;28;20217;-81
2023/12/26 04:56:33;;;;;;;8.43;3.70;;;;;9.60;100506.00;;;;10389864;28;20237;-81
2023/12/26 05:01:41;;;;;;;10.00;3.53;;;;;9.60;100502.00;;;;10411032;28;20225;-81
2023/12/26 05:06:42;;;;;;;7.17;4.33;;;;;9.60;100506.00;;;;10399286;28;20291;-83
2023/12/26 05:11:44;;;;;;;10.27;4.13;;;;;9.70;100517.00;;;;10378954;28;20218;-81
2023/12/26 05:16:48;;;;;;;10.40;4.57;;;;;9.70;100517.00;;;;10396982;28;20222;-82
2023/12/26 05:21:51;;;;;;;6.60;4.40;;;;;9.70;100531.00;;;;10420771;28;20314;-80
2023/12/26 05:26:53;;;;;;;14.17;4.93;;;;;9.70;100538.00;;;;10383082;28;20222;-80
2023/12/26 05:31:54;;;;;;;11.80;5.27;;;;;9.70;100550.00;;;;10389396;28;20256;-82
2023/12/26 05:36:56;;;;;;;15.50;4.87;;;;;9.70;100546.00;;;;10378336;28;20223;-81
2023/12/26 05:41:57;;;;;;;16.13;5.17;;;;;9.70;100547.00;;;;10384578;28;20229;-79
2023/12/26 05:47:02;;;;;;;9.97;4.73;;;;;9.70;100568.00;;;;10397927;28;20217;-79
2023/12/26 05:52:04;;;;;;;13.23;4.57;;;;;9.70;100578.00;;;;10403001;28;20696;-79
2023/12/26 05:57:05;;;;;;;14.83;5.07;;;;;9.70;100581.00;;;;10390315;28;20694;-79
2023/12/26 06:02:09;;;;;;;12.23;4.30;;;;;9.70;100596.00;;;;10379287;28;20231;-78
2023/12/26 06:07:12;;;;;;;14.17;4.47;;;;;9.80;100622.00;;;;10414055;28;20226;-81
2023/12/26 06:12:13;;;;;;;7.63;4.33;;;;;9.80;100612.00;;;;10383553;28;20227;-79
2023/12/26 06:17:16;;;;;;;15.13;4.93;;;;;9.70;100629.00;;;;10406508;28;20225;-79
2023/12/26 06:22:18;;;;;;;8.37;3.20;;;;;9.70;100623.00;;;;10355704;28;20222;-79
2023/12/26 06:27:19;;;;;;;13.77;3.17;;;;;9.70;100636.00;;;;10368711;28;20218;-80
2023/12/26 06:32:21;;;;;;;6.73;2.50;;;;;9.80;100628.00;;;;10345954;28;20214;-79
2023/12/26 06:37:22;;;;;;;10.67;2.40;;;;;9.80;100641.00;;;;10380543;28;20272;-79
2023/12/26 06:42:23;;;;;;;10.87;2.67;;;;;9.80;100647.00;;;;10384668;28;20226;-80
2023/12/26 06:47:24;;;;;;;10.50;3.40;;;;;9.70;100649.00;;;;10384182;28;21186;-79
2023/12/26 06:52:26;;;;;;;15.07;2.77;;;;;9.70;100661.00;;;;10414709;28;20310;-80
2023/12/26 06:57:27;;;;;;;15.13;2.30;;;;;9.70;100656.00;;;;10388656;28;20225;-79
2023/12/26 07:02:32;;;;;;;11.83;2.20;;;;;9.60;100673.00;;;;10401411;28;20889;-80
2023/12/26 07:07:33;;;;;;;15.40;2.50;;;;;9.60;100683.00;;;;10410320;28;20749;-80
2023/12/26 07:12:35;;;;;;;13.67;3.00;;;;;9.60;100707.00;;;;10407357;28;20226;-79
2023/12/26 07:17:36;;;;;;;13.50;2.53;;;;;9.60;100701.00;;;;10399295;28;20229;-79
2023/12/26 07:22:37;;;;;;;8.77;2.00;;;;;9.50;100709.00;;;;10401558;28;20245;-79
2023/12/26 07:27:39;;;;;;;14.40;1.83;;;;;9.30;100727.00;;;;10368693;28;20257;-80
2023/12/26 07:32:40;;;;;;;8.37;1.40;;;;;9.10;100749.00;;;;10411540;28;20784;-79
2023/12/26 07:37:41;;;;;;;9.20;1.57;;;;;9.00;100767.00;;;;10385337;28;20225;-79
2023/12/26 07:42:42;;;;;;;7.67;1.67;;;;;8.80;100790.00;;;;10388152;28;20234;-79
2023/12/26 07:47:44;;;;;;;12.50;2.00;;;;;8.70;100801.00;;;;10388122;28;20219;-78
2023/12/26 07:52:45;;;;;;;17.60;2.60;;;;;8.70;100812.00;;;;10369165;28;20230;-79
2023/12/26 07:57:46;;;;;;;6.50;1.63;;;;;8.70;100831.00;;;;10346243;28;20298;-79
2023/12/26 08:02:48;;;;;;;11.33;2.10;;;;;8.60;100847.00;;;;10364088;28;20223;-77
2023/12/26 08:07:49;;;;;;;12.13;1.80;;;;;8.60;100867.00;;;;10379844;28;20244;-78
2023/12/26 08:12:50;;;;;;;14.97;2.53;;;;;8.50;100874.00;;;;10386119;28;20719;-79
2023/12/26 08:17:51;;;;;;;7.37;1.50;;;;;8.50;100883.00;;;;10408442;28;20300;-78
2023/12/26 08:22:53;;;;;;;6.93;1.70;;;;;8.40;100882.00;;;;10367913;28;20222;-78
2023/12/26 08:27:55;;;;;;;7.87;1.80;;;;;8.40;100883.00;;;;10374883;28;20229;-78
2023/12/26 08:32:56;;;;;;;10.80;1.97;;;;;8.40;100904.00;;;;10397423;28;20236;-78
2023/12/26 08:37:58;;;;;;;7.40;1.47;;;;;8.50;100903.00;;;;10372326;28;20226;-77
2023/12/26 08:42:59;;;;;;;9.20;2.07;;;;;8.60;100911.00;;;;10403418;28;20728;-78
2023/12/26 08:48:02;;;;;;;13.73;1.90;;;;;8.60;100922.00;;;;10392745;28;20678;-79
2023/12/26 08:53:03;;;;;;;7.67;1.83;;;;;8.60;100951.00;;;;10381956;28;20257;-81
2023/12/26 08:58:05;;;;;;;10.03;2.03;;;;;8.60;100949.00;;;;10376977;28;20321;-81
2023/12/26 09:03:07;;;;;;;11.40;1.80;;;;;8.60;100964.00;;;;10416241;28;20716;-81
2023/12/26 09:08:08;;;;;;;13.20;1.90;;;;;8.60;100967.00;;;;10413879;28;20229;-81
2023/12/26 09:13:11;;;;;;;9.97;2.50;;;;;8.70;100974.00;;;;10366218;28;20227;-81
2023/12/26 09:18:12;;;;;;;7.73;1.73;;;;;8.90;100972.00;;;;10326508;28;20592;-80
2023/12/26 09:23:13;;;;;;;11.57;2.43;;;;;9.20;100982.00;;;;10339772;28;20223;-82
2023/12/26 09:28:16;;;;;;;12.47;2.23;;;;;9.60;100987.00;;;;10354492;28;20230;-81
2023/12/26 09:33:17;;;;;;;10.57;2.47;;;;;10.00;100998.00;;;;10346910;28;20620;-82
2023/12/26 09:38:19;;;;;;;5.90;1.63;;;;;10.10;100991.00;;;;10385280;28;20218;-81
2023/12/26 09:43:21;;;;;;;10.73;2.00;;;;;10.30;100991.00;;;;10368744;28;20273;-82
2023/12/26 09:48:24;;;;;;;18.30;2.63;;;;;10.70;100994.00;;;;10361198;28;20222;-81
2023/12/26 09:53:28;;;;;;;14.00;2.50;;;;;10.70;100998.00;;;;10386642;28;20224;-80
2023/12/26 09:58:30;;;;;;;12.80;2.20;;;;;10.50;101010.00;;;;10384315;28;20237;-82
2023/12/26 10:03:32;;;;;;;15.83;2.80;;;;;10.40;101034.00;;;;10365461;28;20286;-81
2023/12/26 10:08:34;;;;;;;15.70;2.50;;;;;10.20;101042.00;;;;10397856;28;20221;-81
2023/12/26 10:13:50;;;;;;;13.90;1.93;;;;;9.90;101070.00;;;;10407623;28;20273;-82
2023/12/26 10:18:52;;;;;;;8.97;2.20;;;;;9.70;101058.00;;;;10418866;28;20876;-81
2023/12/26 10:23:55;;;;;;;13.37;2.87;;;;;9.50;101044.00;;;;10401514;28;20226;-81
2023/12/26 10:28:56;;;;;;;12.93;1.93;;;;;9.50;101049.00;;;;10414883;28;20230;-81
2023/12/26 10:34:12;;;;;;;12.73;2.30;;;;;9.50;101074.00;;;;10368682;28;20277;-82
2023/12/26 10:39:14;;;;;;;11.33;2.97;;;;;9.40;101091.00;;;;10360775;28;20265;-82
2023/12/26 10:44:17;;;;;;;15.87;2.43;;;;;9.40;101099.00;;;;10367265;28;20218;-81
2023/12/26 10:49:24;;;;;;;15.37;2.40;;;;;9.50;101115.00;;;;10377233;28;20219;-82
2023/12/26 10:54:27;;;;;;;11.17;2.20;;;;;9.60;101109.00;;;;10398575;28;20622;-82
2023/12/26 11:05:35;;;;;;;17.30;2.30;;;;;11.00;101113.00;;;;10415011;28;20218;-82
2023/12/26 11:10:37;;;;;;;12.63;2.20;;;;;11.50;101120.00;;;;10400408;28;20223;-82
2023/12/26 11:15:39;;;;;;;12.77;2.50;;;;;11.80;101099.00;;;;10380578;28;20211;-82
2023/12/26 11:20:41;;;;;;;10.07;1.83;;;;;12.00;101099.00;;;;10385991;28;20219;-82
2023/12/26 11:25:42;;;;;;;7.80;2.10;;;;;12.00;101111.00;;;;10419941;28;20222;-81
2023/12/26 11:30:44;;;;;;;8.50;1.95;;;;;12.20;101102.00;;;;10403023;28;20215;-83
2023/12/26 11:35:48;;;;;;;7.13;2.08;;;;;12.20;101114.00;;;;10405313;28;20316;-81
2023/12/26 11:40:49;;;;;;;7.50;1.75;;;;;12.30;101145.00;;;;10403093;28;20228;-82
2023/12/26 11:45:50;;;;;;;8.32;1.77;;;;;12.20;101135.00;;;;10410708;28;20252;-80
2023/12/26 11:51:11;;;;;;;8.50;2.15;;;;;12.20;101147.00;;;;10400842;28;20226;-81
2023/12/26 11:56:12;;;;;;;8.93;1.88;;;;;12.10;101161.00;;;;10421943;28;20235;-81
2023/12/26 12:01:13;;;;;;;7.00;1.92;;;;;11.70;101151.00;;;;10399750;28;20830;-80
2023/12/26 12:06:16;;;;;;;9.43;1.80;;;;;11.50;101147.00;;;;10404135;28;20214;-80
2023/12/26 12:11:18;;;;;;;9.73;1.98;;;;;11.00;101169.00;;;;10374780;28;20241;-80
2023/12/26 12:16:24;;;;;;;10.37;2.20;;;;;10.50;101167.00;;;;10367528;28;20275;-80
2023/12/26 12:21:38;;;;;;;11.63;1.80;;;;;10.00;101170.00;;;;10382379;28;20248;-86
2023/12/26 12:27:18;;;;;;;9.10;1.73;;;;;9.70;101162.00;;;;10389648;28;20214;-86
2023/12/26 12:32:20;;;;;;;12.87;1.93;;;;;9.60;101164.00;;;;10298664;28;20267;-86
2023/12/26 12:37:21;;;;;;;12.77;3.27;;;;;9.50;101159.00;;;;10404049;28;20230;-86
2023/12/26 12:42:23;;;;;;;11.60;2.40;;;;;9.50;101172.00;;;;10399261;28;20226;-88
2023/12/26 12:47:26;;;;;;;13.53;2.30;;;;;9.50;101164.00;;;;10394664;28;20225;-85
2023/12/26 12:52:27;;;;;;;10.90;2.40;;;;;9.60;101176.00;;;;10414470;28;20284;-86
2023/12/26 12:57:28;;;;;;;12.50;2.43;;;;;9.70;101177.00;;;;10398930;28;20269;-83
2023/12/26 13:02:30;;;;;;;9.30;2.10;;;;;9.70;101179.00;;;;10404436;28;20221;-83
2023/12/26 13:07:38;;;;;;;12.93;2.60;;;;;9.80;101181.00;;;;10387953;28;20991;-82
2023/12/26 13:12:40;;;;;;;10.33;1.77;;;;;9.90;101202.00;;;;10352510;28;20222;-83
2023/12/26 13:17:41;;;;;;;6.97;1.80;;;;;10.10;101208.00;;;;10405582;28;20249;-83
2023/12/26 13:22:42;;;;;;;10.83;2.07;;;;;10.10;101202.00;;;;10406273;28;20249;-83
2023/12/26 13:27:43;;;;;;;9.93;2.13;;;;;10.20;101194.00;;;;10389912;28;20248;-83
2023/12/26 13:32:44;;;;;;;11.60;2.43;;;;;10.20;101224.00;;;;10426750;28;20226;-82
2023/12/26 13:37:46;;;;;;;12.43;2.37;;;;;10.10;101198.00;;;;10410579;28;20222;-82
2023/12/26 13:42:47;;;;;;;12.20;2.20;;;;;10.20;101205.00;;;;10385681;28;20249;-82
2023/12/26 13:47:48;;;;;;;11.43;2.37;;;;;10.10;101220.00;;;;10422678;28;20214;-82
2023/12/26 13:52:50;;;;;;;9.10;2.20;;;;;10.10;101226.00;;;;10408745;28;20743;-82
2023/12/26 13:57:51;;;;;;;12.63;2.50;;;;;10.00;101224.00;;;;10424626;28;20333;-81
2023/12/26 14:02:52;;;;;;;8.17;1.90;;;;;10.00;101237.00;;;;10395784;28;20219;-81
2023/12/26 14:07:57;;;;;;;13.17;2.10;;;;;10.00;101239.00;;;;10412074;28;20214;-82
2023/12/26 14:12:58;;;;;;;13.77;2.17;;;;;9.90;101265.00;;;;10393493;28;20326;-82
2023/12/26 14:18:02;;;;;;;23.70;2.70;;;;;9.90;101255.00;;;;10403900;28;20229;-82
2023/12/26 14:23:04;;;;;;;15.83;3.13;;;;;9.80;101255.00;;;;10424666;28;20238;-82
2023/12/26 14:28:05;;;;;;;13.07;2.90;;;;;9.70;101262.00;;;;10406870;28;20224;-82
2023/12/26 14:33:06;;;;;;;11.90;2.30;;;;;9.60;101271.00;;;;10421496;28;20218;-82
2023/12/26 14:38:08;;;;;;;12.47;2.77;;;;;9.40;101272.00;;;;10390805;28;20226;-83
2023/12/26 14:43:09;;;;;;;13.23;2.67;;;;;9.30;101281.00;;;;10412620;28;20225;-79
2023/12/26 14:48:10;;;;;;;13.40;2.57;;;;;9.30;101285.00;;;;10397174;28;20696;-79
2023/12/26 14:53:12;;;;;;;11.23;2.17;;;;;9.20;101276.00;;;;10407803;28;20766;-79
2023/12/26 14:58:13;;;;;;;17.73;2.90;;;;;9.20;101288.00;;;;10417913;28;20789;-80
2023/12/26 15:03:14;;;;;;;8.97;2.57;;;;;9.10;101285.00;;;;10382410;28;20233;-79
2023/12/26 15:08:17;;;;;;;13.30;2.53;;;;;9.00;101301.00;;;;10386922;28;20297;-79
2023/12/26 15:13:19;;;;;;;14.07;2.40;;;;;8.90;101300.00;;;;10334312;28;20297;-79
2023/12/26 15:18:37;;;;;;;15.83;2.73;;;;;8.70;101300.00;;;;10392746;28;20221;-79
2023/12/26 15:23:40;;;;;;;12.30;3.50;;;;;8.50;101306.00;;;;10398178;28;20341;-79
2023/12/26 15:28:42;;;;;;;14.20;3.53;;;;;8.40;101312.00;;;;10416261;28;20229;-79
2023/12/26 15:33:46;;;;;;;14.80;2.93;;;;;8.10;101310.00;;;;10378393;28;20215;-79
2023/12/26 15:38:48;;;;;;;17.30;3.00;;;;;8.10;101326.00;;;;10372344;28;20230;-79
2023/12/26 15:43:51;;;;;;;17.57;2.90;;;;;7.90;101332.00;;;;10391506;28;20223;-79
2023/12/26 15:48:53;;;;;;;13.20;3.43;;;;;7.70;101343.00;;;;10385557;28;20225;-79
2023/12/26 15:53:54;;;;;;;10.37;2.87;;;;;7.60;101355.00;;;;10402219;28;20234;-79
2023/12/26 15:58:56;;;;;;;14.17;3.00;;;;;7.50;101365.00;;;;10363815;28;20237;-78
2023/12/26 16:03:57;;;;;;;17.07;2.97;;;;;7.30;101368.00;;;;10383090;28;20573;-79
2023/12/26 16:08:59;;;;;;;11.77;2.57;;;;;7.20;101374.00;;;;10383002;28;20222;-79
2023/12/26 16:14:01;;;;;;;12.73;2.73;;;;;7.10;101377.00;;;;10392676;28;20217;-79
2023/12/26 16:19:02;;;;;;;10.50;2.70;;;;;7.00;101376.00;;;;10408637;28;20307;-78
2023/12/26 16:24:04;;;;;;;12.30;3.10;;;;;6.90;101384.00;;;;10388320;28;20309;-80
2023/12/26 16:29:05;;;;;;;20.07;4.37;;;;;6.80;101379.00;;;;10396477;28;20241;-78
2023/12/26 16:34:06;;;;;;;10.97;3.37;;;;;6.60;101392.00;;;;10379775;28;20222;-79
2023/12/26 16:39:08;;;;;;;12.73;3.13;;;;;6.40;101399.00;;;;10394935;28;20230;-79
2023/12/26 16:44:10;;;;;;;16.33;3.20;;;;;6.20;101410.00;;;;10380447;28;20230;-78
2023/12/26 16:49:12;;;;;;;11.63;3.57;;;;;6.10;101412.00;;;;10392073;28;20637;-79
2023/12/26 16:54:13;;;;;;;13.33;3.37;;;;;6.00;101415.00;;;;10402131;28;20792;-79
2023/12/26 16:59:14;;;;;;;13.93;3.70;;;;;5.90;101413.00;;;;10352054;28;20306;-83
2023/12/26 17:04:15;;;;;;;10.10;3.30;;;;;5.80;101407.00;;;;10360750;28;20363;-83
2023/12/26 17:09:17;;;;;;;16.73;3.50;;;;;5.80;101405.00;;;;10362569;28;20215;-84
2023/12/26 17:14:19;;;;;;;12.40;3.30;;;;;5.80;101417.00;;;;10339293;28;20239;-83
2023/12/26 17:19:20;;;;;;;14.97;4.37;;;;;5.80;101418.00;;;;10351488;28;20257;-83
2023/12/26 17:24:22;;;;;;;35.97;18.10;;;;;5.70;101412.00;;;;10374123;28;20237;-83
2023/12/26 17:29:24;;;;;;;20.73;9.40;;;;;5.70;101420.00;;;;10403828;28;20552;-83
2023/12/26 17:34:26;;;;;;;25.03;6.60;;;;;5.70;101430.00;;;;10399250;28;20252;-84
2023/12/26 17:39:27;;;;;;;13.50;4.63;;;;;5.70;101421.00;;;;10384460;28;20814;-84
2023/12/26 17:44:29;;;;;;;17.23;4.90;;;;;5.80;101419.00;;;;10385212;28;20253;-83
2023/12/26 17:49:30;;;;;;;29.93;5.53;;;;;5.80;101432.00;;;;10411044;28;20213;-83
2023/12/26 17:54:32;;;;;;;21.43;5.20;;;;;5.90;101440.00;;;;10382493;28;20284;-83
2023/12/26 17:59:33;;;;;;;14.37;5.00;;;;;5.80;101442.00;;;;10396912;28;20221;-82
2023/12/26 18:04:34;;;;;;;9.33;4.53;;;;;5.70;101436.00;;;;10396773;28;20221;-83
2023/12/26 18:09:37;;;;;;;14.83;4.17;;;;;5.60;101437.00;;;;10388121;28;20896;-78
2023/12/26 18:14:38;;;;;;;14.40;4.13;;;;;5.50;101437.00;;;;10422308;28;20217;-78
2023/12/26 18:19:39;;;;;;;17.23;4.67;;;;;5.40;101453.00;;;;10393289;28;20219;-79
2023/12/26 18:24:41;;;;;;;17.70;4.70;;;;;5.40;101453.00;;;;10399005;28;20244;-78
2023/12/26 18:29:42;;;;;;;20.70;5.27;;;;;5.30;101443.00;;;;10375054;28;20225;-79
2023/12/26 18:34:44;;;;;;;16.83;5.07;;;;;5.20;101465.00;;;;10382199;28;20783;-78
2023/12/26 18:39:45;;;;;;;15.17;5.67;;;;;5.10;101469.00;;;;10369752;28;20318;-78
2023/12/26 18:44:47;;;;;;;14.53;5.07;;;;;5.00;101481.00;;;;10406017;28;20226;-79
2023/12/26 18:49:49;;;;;;;15.13;5.63;;;;;4.90;101485.00;;;;10380209;28;20249;-79
2023/12/26 18:54:50;;;;;;;20.87;7.17;;;;;4.90;101504.00;;;;10393202;28;20223;-78
2023/12/26 18:59:51;;;;;;;26.47;13.13;;;;;5.00;101506.00;;;;10386269;28;20267;-78
2023/12/26 19:04:52;;;;;;;25.60;9.13;;;;;4.90;101510.00;;;;10388767;28;20219;-78
2023/12/26 19:09:54;;;;;;;20.10;7.40;;;;;4.90;101513.00;;;;10398181;28;20226;-78
2023/12/26 19:14:55;;;;;;;17.83;8.00;;;;;5.00;101517.00;;;;10394803;28;20233;-78
2023/12/26 19:19:56;;;;;;;21.70;9.07;;;;;5.00;101511.00;;;;10402036;28;20225;-76
2023/12/26 19:24:58;;;;;;;20.40;9.10;;;;;5.10;101511.00;;;;10393817;28;20219;-76
2023/12/26 19:29:59;;;;;;;27.73;16.60;;;;;5.10;101507.00;;;;10397735;28;20242;-78
2023/12/26 19:35:01;;;;;;;29.20;9.63;;;;;5.00;101490.00;;;;10406843;28;20217;-78
2023/12/26 19:40:03;;;;;;;26.97;11.40;;;;;4.90;101511.00;;;;10386468;28;20227;-77
2023/12/26 19:45:06;;;;;;;24.47;9.97;;;;;4.70;101521.00;;;;10368508;28;20226;-76
2023/12/26 19:50:08;;;;;;;22.90;11.17;;;;;4.70;101525.00;;;;10382927;28;20892;-77
2023/12/26 19:55:09;;;;;;;30.20;10.53;;;;;4.60;101527.00;;;;10384839;28;20230;-76
2023/12/26 20:00:13;;;;;;;26.50;9.13;;;;;4.40;101527.00;;;;10377630;28;20290;-75
2023/12/26 20:05:14;;;;;;;15.40;7.43;;;;;4.30;101520.00;;;;10390913;28;20222;-76
2023/12/26 20:10:16;;;;;;;21.67;8.70;;;;;4.10;101523.00;;;;10394228;28;20293;-76
2023/12/26 20:15:17;;;;;;;23.80;9.43;;;;;4.00;101524.00;;;;10388702;28;20220;-78
2023/12/26 20:20:18;;;;;;;17.17;8.00;;;;;3.90;101519.00;;;;10384384;28;20230;-77
2023/12/26 20:25:21;;;;;;;19.63;9.20;;;;;3.90;101511.00;;;;10395407;28;20218;-76
2023/12/26 20:30:25;;;;;;;17.30;7.43;;;;;3.80;101511.00;;;;10389582;28;20275;-79
2023/12/26 20:35:26;;;;;;;23.77;8.17;;;;;3.70;101502.00;;;;10383624;28;20223;-79
2023/12/26 20:40:27;;;;;;;16.23;8.17;;;;;3.70;101498.00;;;;10388438;28;20681;-79
2023/12/26 20:45:29;;;;;;;22.30;9.77;;;;;3.70;101500.00;;;;10389153;28;20216;-79
2023/12/26 20:50:30;;;;;;;20.93;8.83;;;;;3.80;101513.00;;;;10356745;28;20971;-79
2023/12/26 20:55:31;;;;;;;24.10;9.20;;;;;3.80;101515.00;;;;10355320;28;20214;-79
2023/12/26 21:00:32;;;;;;;28.63;9.93;;;;;3.80;101513.00;;;;10387966;28;20237;-79
2023/12/26 21:05:34;;;;;;;25.77;11.70;;;;;3.90;101518.00;;;;10385785;28;20788;-78
2023/12/26 21:10:36;;;;;;;22.90;11.37;;;;;4.00;101504.00;;;;10351704;28;20226;-78
2023/12/26 21:15:37;;;;;;;32.33;11.27;;;;;4.10;101510.00;;;;10361255;28;20245;-78
2023/12/26 21:20:39;;;;;;;21.97;9.90;;;;;4.20;101515.00;;;;10373021;28;20237;-79
2023/12/26 21:25:40;;;;;;;19.70;9.30;;;;;4.10;101519.00;;;;10376128;28;20226;-78
2023/12/26 21:30:42;;;;;;;21.40;10.37;;;;;4.20;101524.00;;;;10337407;28;20302;-78
2023/12/26 21:35:43;;;;;;;28.23;10.90;;;;;4.20;101526.00;;;;10406018;28;20845;-78
2023/12/26 21:40:50;;;;;;;22.60;10.30;;;;;4.20;101536.00;;;;10367216;28;20750;-82
2023/12/26 21:45:51;;;;;;;17.00;9.43;;;;;4.20;101531.00;;;;10377546;28;20212;-82
2023/12/26 21:50:52;;;;;;;21.80;10.00;;;;;4.20;101527.00;;;;10392274;28;20225;-82
2023/12/26 21:55:53;;;;;;;23.83;9.30;;;;;4.20;101531.00;;;;10389074;28;20226;-82
2023/12/26 22:00:55;;;;;;;20.40;9.10;;;;;4.10;101539.00;;;;10384751;28;21037;-82
2023/12/26 22:05:56;;;;;;;25.10;10.57;;;;;4.00;101543.00;;;;10369422;28;20222;-82
2023/12/26 22:10:57;;;;;;;23.77;10.33;;;;;3.90;101533.00;;;;10385533;28;20245;-82
2023/12/26 22:15:59;;;;;;;20.37;9.60;;;;;4.10;101525.00;;;;10379394;28;20214;-82
2023/12/26 22:21:00;;;;;;;16.17;8.93;;;;;4.30;101513.00;;;;10409551;28;20233;-82
2023/12/26 22:26:02;;;;;;;30.00;11.23;;;;;4.40;101510.00;;;;10382866;28;20219;-82
2023/12/26 22:31:03;;;;;;;20.17;10.20;;;;;4.50;101518.00;;;;10401811;28;20575;-82
2023/12/26 22:36:10;;;;;;;23.83;9.37;;;;;4.50;101527.00;;;;10387128;28;20870;-82
2023/12/26 22:41:19;;;;;;;26.47;10.07;;;;;4.40;101536.00;;;;10389152;28;20314;-83
2023/12/26 22:46:22;;;;;;;21.47;8.80;;;;;4.40;101532.00;;;;10386786;28;20249;-82
2023/12/26 22:51:23;;;;;;;20.83;9.10;;;;;4.30;101519.00;;;;10382601;28;20230;-87
2023/12/26 22:56:25;;;;;;;19.30;9.40;;;;;4.30;101537.00;;;;10401577;28;20245;-87
2023/12/26 23:01:27;;;;;;;18.43;10.07;;;;;4.30;101531.00;;;;10400605;28;20489;-87
2023/12/26 23:06:28;;;;;;;25.10;9.87;;;;;4.20;101532.00;;;;10384348;28;20260;-86
2023/12/26 23:11:29;;;;;;;17.33;9.73;;;;;4.20;101539.00;;;;10359511;28;20226;-87
2023/12/26 23:16:31;;;;;;;30.57;10.93;;;;;4.10;101532.00;;;;10358231;28;20227;-86
2023/12/26 23:21:33;;;;;;;28.67;10.97;;;;;4.10;101531.00;;;;10360574;28;20227;-86
2023/12/26 23:26:34;;;;;;;21.27;11.63;;;;;4.00;101515.00;;;;10413277;28;20225;-86
2023/12/26 23:31:36;;;;;;;20.57;11.17;;;;;4.00;101520.00;;;;10386605;28;20383;-87
2023/12/26 23:36:37;;;;;;;18.57;12.27;;;;;4.00;101506.00;;;;10342086;28;20285;-88
2023/12/26 23:41:39;;;;;;;23.63;12.33;;;;;3.90;101507.00;;;;10344932;28;20227;-87
2023/12/26 23:46:41;;;;;;;19.53;11.03;;;;;3.90;101509.00;;;;10385818;28;20211;-86
2023/12/26 23:51:42;;;;;;;25.37;12.17;;;;;3.80;101511.00;;;;10405774;28;20218;-86
2023/12/26 23:56:44;;;;;;;22.00;11.20;;;;;3.70;101505.00;;;;10385490;28;20218;-87
